Time;durP1;ratioP1;P1;durP2;ratioP2;P2;SDS_P1;SDS_P2;PMS_P1;PMS_P2;Temp;Humidity;BMP_temperature;BMP_pressure;BME280_temperature;BME280_humidity;BME280_pressure;Samples;Min_cycle;Max_cycle;Signal;HPM_P1;HPM_P2
2022/09/12 00:01:20;;;;;;;12.07;1.40;;;;;;;;;;5031686;28;20045;-74
2022/09/12 00:03:50;;;;;;;11.35;1.45;;;;;;;;;;5030440;28;20041;-73
2022/09/12 00:06:27;;;;;;;21.33;2.08;;;;;;;;;;5027327;28;20051;-71
2022/09/12 00:08:54;;;;;;;2.75;0.40;;;;;;;;;;5028934;28;20045;-76
2022/09/12 00:11:21;;;;;;;18.40;2.38;;;;;;;;;;5028100;28;20037;-73
2022/09/12 00:13:47;;;;;;;8.10;0.95;;;;;;;;;;5028987;28;20387;-73
2022/09/12 00:16:23;;;;;;;8.73;1.05;;;;;;;;;;5032460;28;20391;-74
2022/09/12 00:18:52;;;;;;;26.80;3.47;;;;;;;;;;5030936;28;20037;-74
2022/09/12 00:21:19;;;;;;;1.92;0.50;;;;;;;;;;5028400;28;20041;-75
2022/09/12 00:23:46;;;;;;;11.00;1.83;;;;;;;;;;5031996;28;20481;-75
2022/09/12 00:26:13;;;;;;;14.40;1.38;;;;;;;;;;5028475;28;20123;-74
2022/09/12 00:28:40;;;;;;;20.20;2.10;;;;;;;;;;5041435;28;20042;-72
2022/09/12 00:31:09;;;;;;;13.68;1.48;;;;;;;;;;5032536;28;20083;-71
2022/09/12 00:33:35;;;;;;;25.75;3.78;;;;;;;;;;5027605;28;20812;-71
2022/09/12 00:36:06;;;;;;;13.38;1.50;;;;;;;;;;5027382;28;20038;-78
2022/09/12 00:38:37;;;;;;;23.40;2.50;;;;;;;;;;5026986;28;20375;-70
2022/09/12 00:41:04;;;;;;;16.30;1.70;;;;;;;;;;5027969;28;20045;-71
2022/09/12 00:43:39;;;;;;;21.13;2.13;;;;;;;;;;5031886;28;20037;-73
2022/09/12 00:46:26;;;;;;;32.00;4.35;;;;;;;;;;5033114;28;20045;-73
2022/09/12 00:49:00;;;;;;;6.18;1.48;;;;;;;;;;5023694;28;20049;-74
2022/09/12 00:51:29;;;;;;;15.88;1.58;;;;;;;;;;5027533;28;20041;-73
2022/09/12 00:53:56;;;;;;;9.50;1.00;;;;;;;;;;5027954;28;20048;-71
2022/09/12 00:56:23;;;;;;;17.10;1.73;;;;;;;;;;5026485;28;20071;-69
2022/09/12 00:59:01;;;;;;;16.42;2.80;;;;;;;;;;5032088;28;20401;-67
2022/09/12 01:01:27;;;;;;;28.83;2.80;;;;;;;;;;5029294;28;20049;-74
2022/09/12 01:03:58;;;;;;;28.35;2.78;;;;;;;;;;5030530;28;20069;-74
2022/09/12 01:06:25;;;;;;;9.55;1.17;;;;;;;;;;5026298;28;20041;-76
2022/09/12 01:08:53;;;;;;;4.57;0.60;;;;;;;;;;5027340;28;20051;-78
2022/09/12 01:11:20;;;;;;;24.10;2.42;;;;;;;;;;5026810;28;20041;-80
2022/09/12 01:13:47;;;;;;;6.63;0.75;;;;;;;;;;5027417;28;20034;-71
2022/09/12 01:16:14;;;;;;;9.52;3.22;;;;;;;;;;5031220;28;20512;-70
2022/09/12 01:18:59;;;;;;;32.47;3.70;;;;;;;;;;5027203;28;20042;-69
2022/09/12 01:21:29;;;;;;;7.40;0.80;;;;;;;;;;5026393;28;20065;-78
2022/09/12 01:24:14;;;;;;;29.50;3.30;;;;;;;;;;5027091;28;20041;-79
2022/09/12 01:26:46;;;;;;;22.70;2.33;;;;;;;;;;5032833;28;20124;-77
2022/09/12 01:29:24;;;;;;;26.95;2.58;;;;;;;;;;5026481;28;20037;-77
2022/09/12 01:32:23;;;;;;;8.50;1.00;;;;;;;;;;5027031;28;20038;-79
2022/09/12 01:34:58;;;;;;;7.05;0.98;;;;;;;;;;4984923;28;20602;-77
2022/09/12 01:37:43;;;;;;;11.10;1.33;;;;;;;;;;4989944;28;20046;-74
2022/09/12 01:40:33;;;;;;;16.83;2.10;;;;;;;;;;4986315;28;20499;-75
2022/09/12 01:43:19;;;;;;;21.02;2.15;;;;;;;;;;4977670;28;20061;-69
2022/09/12 01:45:57;;;;;;;6.57;0.77;;;;;;;;;;4986278;28;20137;-68
2022/09/12 01:48:27;;;;;;;8.63;1.10;;;;;;;;;;4984564;28;20065;-71
2022/09/12 01:51:02;;;;;;;6.18;0.85;;;;;;;;;;4983307;28;20077;-71
2022/09/12 01:53:33;;;;;;;18.33;1.83;;;;;;;;;;4987370;28;20042;-80
2022/09/12 01:56:08;;;;;;;7.97;0.93;;;;;;;;;;4986900;28;20495;-81
2022/09/12 01:58:38;;;;;;;36.50;3.60;;;;;;;;;;4974414;28;20062;-80
2022/09/12 02:01:14;;;;;;;11.00;1.15;;;;;;;;;;4989662;28;20582;-77
2022/09/12 02:03:44;;;;;;;11.75;1.38;;;;;;;;;;4985995;28;20054;-77
2022/09/12 02:06:22;;;;;;;16.92;2.10;;;;;;;;;;4986279;28;20042;-78
2022/09/12 02:09:07;;;;;;;6.95;1.63;;;;;;;;;;4985839;28;20507;-84
2022/09/12 02:11:37;;;;;;;9.32;1.52;;;;;;;;;;5020139;28;20064;-81
2022/09/12 02:14:07;;;;;;;18.42;1.80;;;;;;;;;;5026595;28;20052;-79
2022/09/12 02:16:35;;;;;;;52.83;5.15;;;;;;;;;;5029424;28;20041;-81
2022/09/12 02:19:06;;;;;;;20.77;2.13;;;;;;;;;;5031264;28;20120;-82
2022/09/12 02:21:34;;;;;;;10.35;1.27;;;;;;;;;;5031662;28;20553;-72
2022/09/12 02:24:01;;;;;;;23.88;2.42;;;;;;;;;;5025821;28;20044;-73
2022/09/12 02:26:31;;;;;;;14.85;1.60;;;;;;;;;;5029131;28;20073;-73
2022/09/12 02:28:57;;;;;;;20.92;2.15;;;;;;;;;;5026159;28;20401;-73
2022/09/12 02:31:27;;;;;;;15.02;1.80;;;;;;;;;;5029204;28;20060;-73
2022/09/12 02:33:54;;;;;;;7.60;0.80;;;;;;;;;;5030406;28;20494;-69
2022/09/12 02:36:31;;;;;;;6.80;0.98;;;;;;;;;;5025532;28;20038;-68
2022/09/12 02:38:59;;;;;;;26.08;3.30;;;;;;;;;;5026240;28;20405;-68
2022/09/12 02:41:25;;;;;;;11.27;1.42;;;;;;;;;;5026043;28;20044;-71
2022/09/12 02:43:52;;;;;;;22.15;2.22;;;;;;;;;;5026230;28;20053;-68
2022/09/12 02:46:27;;;;;;;15.23;2.67;;;;;;;;;;5028941;28;20520;-75
2022/09/12 02:48:54;;;;;;;4.70;0.57;;;;;;;;;;5027665;28;20494;-71
2022/09/12 02:51:21;;;;;;;15.15;1.63;;;;;;;;;;5024775;28;20037;-73
2022/09/12 02:53:49;;;;;;;16.05;1.65;;;;;;;;;;5025534;28;20504;-78
2022/09/12 02:56:20;;;;;;;12.05;1.55;;;;;;;;;;5030002;28;20094;-76
2022/09/12 02:58:47;;;;;;;17.05;1.75;;;;;;;;;;5025812;28;20105;-74
2022/09/12 03:01:21;;;;;;;5.72;0.73;;;;;;;;;;5030535;28;20042;-73
2022/09/12 03:03:50;;;;;;;4.90;0.55;;;;;;;;;;5026385;28;20065;-84
2022/09/12 03:06:24;;;;;;;10.60;1.08;;;;;;;;;;5032863;28;20493;-80
2022/09/12 03:09:03;;;;;;;2.92;0.65;;;;;;;;;;5025806;28;20433;-78
2022/09/12 03:11:41;;;;;;;6.75;0.73;;;;;;;;;;5025987;28;20044;-75
2022/09/12 03:14:07;;;;;;;14.00;1.50;;;;;;;;;;5025730;28;20045;-83
2022/09/12 03:16:36;;;;;;;60.13;7.22;;;;;;;;;;5027043;28;20042;-81
2022/09/12 03:19:13;;;;;;;15.43;1.67;;;;;;;;;;5033230;28;20045;-83
2022/09/12 03:21:57;;;;;;;19.67;2.10;;;;;;;;;;5035013;28;20508;-84
2022/09/12 03:24:42;;;;;;;13.23;1.55;;;;;;;;;;5031296;28;20409;-84
2022/09/12 03:27:15;;;;;;;21.65;2.17;;;;;;;;;;5025930;28;20036;-78
2022/09/12 03:29:42;;;;;;;8.18;0.95;;;;;;;;;;5025215;28;20087;-79
2022/09/12 03:32:08;;;;;;;21.05;2.53;;;;;;;;;;5028830;28;20048;-78
2022/09/12 03:34:35;;;;;;;25.85;2.65;;;;;;;;;;5026502;28;20041;-79
2022/09/12 03:37:02;;;;;;;10.13;1.40;;;;;;;;;;5028966;28;20041;-74
2022/09/12 03:39:28;;;;;;;24.25;3.05;;;;;;;;;;5025214;28;20041;-72
2022/09/12 03:41:55;;;;;;;4.90;1.02;;;;;;;;;;5025446;28;20033;-73
2022/09/12 03:44:22;;;;;;;11.70;1.27;;;;;;;;;;5024578;28;20111;-72
2022/09/12 03:46:49;;;;;;;9.25;0.95;;;;;;;;;;5024470;28;20057;-70
2022/09/12 03:49:16;;;;;;;18.35;2.13;;;;;;;;;;5029581;28;20041;-71
2022/09/12 03:51:43;;;;;;;13.80;1.65;;;;;;;;;;5024921;28;20041;-68
2022/09/12 03:54:09;;;;;;;14.32;1.70;;;;;;;;;;5025060;28;20033;-74
2022/09/12 03:56:36;;;;;;;23.25;2.30;;;;;;;;;;5024765;28;20045;-73
2022/09/12 03:59:05;;;;;;;32.00;3.25;;;;;;;;;;5025101;28;20453;-72
2022/09/12 04:01:32;;;;;;;13.38;1.40;;;;;;;;;;5027314;28;20041;-71
2022/09/12 04:03:58;;;;;;;9.85;1.00;;;;;;;;;;5028384;28;20045;-66
2022/09/12 04:06:25;;;;;;;13.52;1.45;;;;;;;;;;5024059;28;20517;-67
2022/09/12 04:08:52;;;;;;;6.57;1.45;;;;;;;;;;5025209;28;20144;-67
2022/09/12 04:11:20;;;;;;;18.77;2.38;;;;;;;;;;5025129;28;20038;-77
2022/09/12 04:13:47;;;;;;;9.05;1.15;;;;;;;;;;5031808;28;20040;-78
2022/09/12 04:16:14;;;;;;;11.07;1.23;;;;;;;;;;5028503;28;20029;-72
2022/09/12 04:18:40;;;;;;;22.23;2.20;;;;;;;;;;5028677;28;20127;-74
2022/09/12 04:21:08;;;;;;;19.88;2.13;;;;;;;;;;5031897;28;20041;-78
2022/09/12 04:23:35;;;;;;;7.03;0.77;;;;;;;;;;5037400;28;20494;-76
2022/09/12 04:26:05;;;;;;;16.25;1.92;;;;;;;;;;5028377;28;20048;-74
2022/09/12 04:28:32;;;;;;;22.13;2.20;;;;;;;;;;5031760;28;20050;-74
2022/09/12 04:31:03;;;;;;;24.08;2.65;;;;;;;;;;5032713;28;20038;-73
2022/09/12 04:33:30;;;;;;;8.07;1.42;;;;;;;;;;5028424;28;20045;-74
2022/09/12 04:36:01;;;;;;;9.20;1.10;;;;;;;;;;5032444;28;20076;-77
2022/09/12 04:38:28;;;;;;;34.95;3.50;;;;;;;;;;5027644;28;20553;-77
2022/09/12 04:40:55;;;;;;;8.57;1.17;;;;;;;;;;5030616;28;20490;-75
2022/09/12 04:43:22;;;;;;;22.15;3.08;;;;;;;;;;5034303;28;20029;-71
2022/09/12 04:45:48;;;;;;;40.45;3.97;;;;;;;;;;5031430;28;20057;-73
2022/09/12 04:48:15;;;;;;;16.95;1.92;;;;;;;;;;5035423;28;20049;-81
2022/09/12 04:50:42;;;;;;;13.30;1.67;;;;;;;;;;5039021;28;20263;-87
2022/09/12 04:53:08;;;;;;;25.92;3.05;;;;;;;;;;5038870;28;20042;-87
2022/09/12 04:55:35;;;;;;;19.98;2.22;;;;;;;;;;5046934;28;20057;-69
2022/09/12 04:58:01;;;;;;;19.33;3.72;;;;;;;;;;5033592;28;20042;-71
2022/09/12 05:00:28;;;;;;;19.40;2.75;;;;;;;;;;5026966;28;20033;-72
2022/09/12 05:02:54;;;;;;;11.65;1.50;;;;;;;;;;5034224;28;20029;-73
2022/09/12 05:05:21;;;;;;;9.93;1.13;;;;;;;;;;5028298;28;20057;-73
2022/09/12 05:07:48;;;;;;;5.90;0.88;;;;;;;;;;5028204;28;20038;-72
2022/09/12 05:10:14;;;;;;;11.82;1.85;;;;;;;;;;5028362;28;20072;-73
2022/09/12 05:12:41;;;;;;;23.27;3.22;;;;;;;;;;5026586;28;20128;-73
2022/09/12 05:15:08;;;;;;;27.02;2.85;;;;;;;;;;5030813;28;20049;-72
2022/09/12 05:17:34;;;;;;;19.17;2.88;;;;;;;;;;5027251;28;20037;-72
2022/09/12 05:20:01;;;;;;;22.70;3.03;;;;;;;;;;5033401;28;20042;-74
2022/09/12 05:22:28;;;;;;;31.02;3.70;;;;;;;;;;5029637;28;20063;-73
2022/09/12 05:24:54;;;;;;;27.30;2.65;;;;;;;;;;5028701;28;20045;-74
2022/09/12 05:27:21;;;;;;;13.50;1.67;;;;;;;;;;5027330;28;20072;-75
2022/09/12 05:29:47;;;;;;;3.85;0.45;;;;;;;;;;5027414;28;20041;-75
2022/09/12 05:32:13;;;;;;;21.65;2.33;;;;;;;;;;5032510;28;20494;-75
2022/09/12 05:34:40;;;;;;;17.17;1.65;;;;;;;;;;5036501;28;20532;-76
2022/09/12 05:37:06;;;;;;;13.90;1.90;;;;;;;;;;5031069;28;20532;-74
2022/09/12 05:39:33;;;;;;;23.45;2.95;;;;;;;;;;5027120;28;20042;-74
2022/09/12 05:41:59;;;;;;;9.88;1.17;;;;;;;;;;5027063;28;20041;-74
2022/09/12 05:44:27;;;;;;;12.60;1.67;;;;;;;;;;5026813;28;20038;-73
2022/09/12 05:46:53;;;;;;;26.65;2.95;;;;;;;;;;5027206;28;20038;-74
2022/09/12 05:49:20;;;;;;;8.05;1.42;;;;;;;;;;5031913;28;20049;-72
2022/09/12 05:51:47;;;;;;;22.30;2.50;;;;;;;;;;5031358;28;20037;-69
2022/09/12 05:54:16;;;;;;;28.88;3.17;;;;;;;;;;5029728;28;20525;-72
2022/09/12 05:56:43;;;;;;;20.52;2.35;;;;;;;;;;5026919;28;20033;-72
2022/09/12 05:59:14;;;;;;;18.52;2.22;;;;;;;;;;5026730;28;20040;-72
2022/09/12 06:01:41;;;;;;;29.83;3.30;;;;;;;;;;5028453;28;20046;-72
2022/09/12 06:04:07;;;;;;;13.93;2.10;;;;;;;;;;5030616;28;20038;-72
2022/09/12 06:06:35;;;;;;;18.58;1.92;;;;;;;;;;5025982;28;20063;-72
2022/09/12 06:09:02;;;;;;;29.63;3.03;;;;;;;;;;5026376;28;20387;-71
2022/09/12 06:11:31;;;;;;;21.30;3.00;;;;;;;;;;5026208;28;20457;-71
2022/09/12 06:13:57;;;;;;;10.95;3.08;;;;;;;;;;5026758;28;20255;-68
2022/09/12 06:16:26;;;;;;;37.88;3.80;;;;;;;;;;5029999;28;20052;-68
2022/09/12 06:18:54;;;;;;;11.10;1.30;;;;;;;;;;5028426;28;20466;-68
2022/09/12 06:21:21;;;;;;;8.77;0.95;;;;;;;;;;5026679;28;20516;-68
2022/09/12 06:23:48;;;;;;;20.38;1.95;;;;;;;;;;5026123;28;20141;-67
2022/09/12 06:26:15;;;;;;;7.22;2.35;;;;;;;;;;5026361;28;20440;-68
2022/09/12 06:28:43;;;;;;;10.95;1.38;;;;;;;;;;5027712;28;20528;-68
2022/09/12 06:31:11;;;;;;;23.08;2.22;;;;;;;;;;5030376;28;20454;-69
2022/09/12 06:33:39;;;;;;;8.05;1.40;;;;;;;;;;5026446;28;20049;-69
2022/09/12 06:36:10;;;;;;;16.50;2.38;;;;;;;;;;5025692;28;20040;-68
2022/09/12 06:38:38;;;;;;;19.65;1.88;;;;;;;;;;5026029;28;20053;-69
2022/09/12 06:41:06;;;;;;;17.10;2.00;;;;;;;;;;5026409;28;20402;-69
2022/09/12 06:43:33;;;;;;;27.48;2.72;;;;;;;;;;5030207;28;20073;-69
2022/09/12 06:45:59;;;;;;;12.85;1.90;;;;;;;;;;5031811;28;20083;-69
2022/09/12 06:48:26;;;;;;;10.45;1.17;;;;;;;;;;5025791;28;20051;-69
2022/09/12 06:51:00;;;;;;;7.80;1.35;;;;;;;;;;5029684;28;20041;-69
2022/09/12 06:53:28;;;;;;;12.38;1.63;;;;;;;;;;5026717;28;20379;-68
2022/09/12 06:55:56;;;;;;;7.50;1.42;;;;;;;;;;5026209;28;20905;-68
2022/09/12 06:58:24;;;;;;;33.75;3.47;;;;;;;;;;5029750;28;20116;-68
2022/09/12 07:00:50;;;;;;;5.75;1.75;;;;;;;;;;5030311;28;20402;-68
2022/09/12 07:03:22;;;;;;;10.57;2.75;;;;;;;;;;5025044;28;20117;-70
2022/09/12 07:05:48;;;;;;;21.80;2.22;;;;;;;;;;5025001;28;20045;-69
2022/09/12 07:08:15;;;;;;;8.32;1.80;;;;;;;;;;5025798;28;20047;-69
2022/09/12 07:10:41;;;;;;;11.40;1.17;;;;;;;;;;5027017;28;20065;-70
2022/09/12 07:13:08;;;;;;;26.83;2.75;;;;;;;;;;5029280;28;20037;-70
2022/09/12 07:15:35;;;;;;;15.65;2.75;;;;;;;;;;5032365;28;20048;-69
2022/09/12 07:18:02;;;;;;;15.85;1.70;;;;;;;;;;5031864;28;20037;-70
2022/09/12 07:20:31;;;;;;;29.35;3.45;;;;;;;;;;5025199;28;20040;-70
2022/09/12 07:22:58;;;;;;;15.00;2.47;;;;;;;;;;5025954;28;20101;-69
2022/09/12 07:25:25;;;;;;;11.77;1.30;;;;;;;;;;5029469;28;20067;-69
2022/09/12 07:27:52;;;;;;;21.67;2.13;;;;;;;;;;5026906;28;20041;-69
2022/09/12 07:30:18;;;;;;;8.07;0.85;;;;;;;;;;5029638;28;20049;-70
2022/09/12 07:32:45;;;;;;;6.93;0.80;;;;;;;;;;5025778;28;20040;-69
2022/09/12 07:35:12;;;;;;;37.75;3.95;;;;;;;;;;5025115;28;20049;-69
2022/09/12 07:37:38;;;;;;;34.65;3.45;;;;;;;;;;5026083;28;20053;-68
2022/09/12 07:40:05;;;;;;;7.45;1.13;;;;;;;;;;5029187;28;20050;-69
2022/09/12 07:42:32;;;;;;;36.30;3.92;;;;;;;;;;5024913;28;20048;-69
2022/09/12 07:44:58;;;;;;;9.27;1.13;;;;;;;;;;5025794;28;20038;-70
2022/09/12 07:47:24;;;;;;;13.10;1.52;;;;;;;;;;5025882;28;20033;-69
2022/09/12 07:49:51;;;;;;;22.55;3.10;;;;;;;;;;5029408;28;20140;-68
2022/09/12 07:52:18;;;;;;;18.52;2.45;;;;;;;;;;5029530;28;20502;-68
2022/09/12 07:54:44;;;;;;;10.15;2.40;;;;;;;;;;5029405;28;20041;-68
2022/09/12 07:57:11;;;;;;;31.73;3.67;;;;;;;;;;5029002;28;20042;-68
2022/09/12 07:59:41;;;;;;;7.00;1.23;;;;;;;;;;5028540;28;20037;-68
2022/09/12 08:02:18;;;;;;;5.18;0.57;;;;;;;;;;5029627;28;20044;-68
2022/09/12 08:04:46;;;;;;;19.10;1.98;;;;;;;;;;5029671;28;20573;-68
2022/09/12 08:07:12;;;;;;;5.60;1.27;;;;;;;;;;5032854;28;20048;-68
2022/09/12 08:09:39;;;;;;;15.73;2.08;;;;;;;;;;5032952;28;20494;-68
2022/09/12 08:12:06;;;;;;;26.30;2.60;;;;;;;;;;5029849;28;20039;-69
2022/09/12 08:14:32;;;;;;;23.98;2.53;;;;;;;;;;5028701;28;20046;-69
2022/09/12 08:16:58;;;;;;;17.70;2.33;;;;;;;;;;5042124;28;20057;-68
2022/09/12 08:19:25;;;;;;;30.65;3.50;;;;;;;;;;5032687;28;20409;-69
2022/09/12 08:21:51;;;;;;;7.43;1.20;;;;;;;;;;5029394;28;20049;-69
2022/09/12 08:24:18;;;;;;;13.93;2.20;;;;;;;;;;5028783;28;20056;-68
2022/09/12 08:26:44;;;;;;;28.38;2.95;;;;;;;;;;5028334;28;20049;-68
2022/09/12 08:29:11;;;;;;;17.05;3.80;;;;;;;;;;5029030;28;20368;-69
2022/09/12 08:31:37;;;;;;;17.95;2.45;;;;;;;;;;5030884;28;20042;-69
2022/09/12 08:34:05;;;;;;;25.13;2.83;;;;;;;;;;5031459;28;20080;-69
2022/09/12 08:36:31;;;;;;;17.60;1.77;;;;;;;;;;5027829;28;20041;-69
2022/09/12 08:38:58;;;;;;;14.10;2.00;;;;;;;;;;5028410;28;20037;-69
2022/09/12 08:41:30;;;;;;;36.90;4.82;;;;;;;;;;5028399;28;20103;-69
2022/09/12 08:44:03;;;;;;;14.02;2.47;;;;;;;;;;5028310;28;20069;-68
2022/09/12 08:46:46;;;;;;;30.85;6.43;;;;;;;;;;5031922;28;20045;-68
2022/09/12 08:49:13;;;;;;;;;;;;;;;;;;5033197;28;20075;-67
2022/09/12 08:51:40;;;;;;;8.45;1.10;;;;;;;;;;5027706;28;19975;-69
2022/09/12 08:54:13;;;;;;;35.33;3.65;;;;;;;;;;5028147;28;20041;-69
2022/09/12 08:56:39;;;;;;;23.65;2.40;;;;;;;;;;5027913;28;20045;-70
2022/09/12 08:59:07;;;;;;;13.30;1.55;;;;;;;;;;5028409;28;20046;-69
2022/09/12 09:01:39;;;;;;;28.08;3.25;;;;;;;;;;5030824;28;20409;-70
2022/09/12 09:04:26;;;;;;;11.23;2.05;;;;;;;;;;5031123;28;20548;-69
2022/09/12 09:06:54;;;;;;;6.20;0.85;;;;;;;;;;5028748;28;20080;-70
2022/09/12 09:09:39;;;;;;;11.05;1.88;;;;;;;;;;5027893;28;20463;-69
2022/09/12 09:12:13;;;;;;;13.25;1.58;;;;;;;;;;5027871;28;20041;-69
2022/09/12 09:14:48;;;;;;;20.73;2.15;;;;;;;;;;5033984;28;20049;-70
2022/09/12 09:17:20;;;;;;;17.58;1.83;;;;;;;;;;5027717;28;20041;-70
2022/09/12 09:19:52;;;;;;;15.07;2.30;;;;;;;;;;5028960;28;20050;-70
2022/09/12 09:22:39;;;;;;;8.50;1.15;;;;;;;;;;5032143;28;20611;-70
2022/09/12 09:25:12;;;;;;;9.30;1.05;;;;;;;;;;5030494;28;20080;-70
2022/09/12 09:27:46;;;;;;;20.50;3.10;;;;;;;;;;5031652;28;20120;-69
2022/09/12 09:30:15;;;;;;;12.93;1.58;;;;;;;;;;5027706;28;20046;-70
2022/09/12 09:32:43;;;;;;;18.40;2.00;;;;;;;;;;5027092;28;20480;-70
2022/09/12 09:35:16;;;;;;;38.95;3.75;;;;;;;;;;5026513;28;20053;-70
2022/09/12 09:37:48;;;;;;;27.10;3.50;;;;;;;;;;5029264;28;20069;-69
2022/09/12 09:40:18;;;;;;;19.95;2.08;;;;;;;;;;5031333;28;20053;-70
2022/09/12 09:43:04;;;;;;;5.18;0.63;;;;;;;;;;5027498;28;20449;-70
2022/09/12 09:45:31;;;;;;;22.33;2.30;;;;;;;;;;5027208;28;20551;-70
2022/09/12 09:48:09;;;;;;;15.00;1.63;;;;;;;;;;5027356;28;20029;-70
2022/09/12 09:50:37;;;;;;;31.80;5.03;;;;;;;;;;5026700;28;20121;-70
2022/09/12 09:53:05;;;;;;;29.52;3.08;;;;;;;;;;5027136;28;20049;-71
2022/09/12 09:55:36;;;;;;;27.30;2.95;;;;;;;;;;5030271;28;20083;-71
2022/09/12 09:58:03;;;;;;;20.63;2.20;;;;;;;;;;5029312;28;20046;-70
2022/09/12 10:00:38;;;;;;;29.25;2.95;;;;;;;;;;5026850;28;20202;-71
2022/09/12 10:03:08;;;;;;;17.13;2.45;;;;;;;;;;5027672;28;20038;-70
2022/09/12 10:05:45;;;;;;;26.85;2.85;;;;;;;;;;5030314;28;20433;-70
2022/09/12 10:08:18;;;;;;;10.60;1.63;;;;;;;;;;5027245;28;20030;-71
2022/09/12 10:10:52;;;;;;;22.15;2.90;;;;;;;;;;5027562;28;20050;-70
2022/09/12 10:13:23;;;;;;;9.57;1.02;;;;;;;;;;5031253;28;20398;-70
2022/09/12 10:15:57;;;;;;;4.68;0.55;;;;;;;;;;5026887;28;20121;-70
2022/09/12 10:18:41;;;;;;;26.38;2.50;;;;;;;;;;5026392;28;20037;-70
2022/09/12 10:21:07;;;;;;;;;;;;;;;;;;5026650;28;20045;-69
2022/09/12 10:23:36;;;;;;;28.23;2.58;;;;;;;;;;5026506;28;19928;-71
2022/09/12 10:26:07;;;;;;;21.95;2.03;;;;;;;;;;5026412;28;20513;-71
2022/09/12 10:28:38;;;;;;;46.35;4.20;;;;;;;;;;5028970;28;20077;-70
2022/09/12 10:31:06;;;;;;;23.90;3.38;;;;;;;;;;5029048;28;20457;-71
2022/09/12 10:33:36;;;;;;;23.80;2.65;;;;;;;;;;5026663;28;20061;-71
2022/09/12 10:36:03;;;;;;;31.65;6.20;;;;;;;;;;5025959;28;20549;-70
2022/09/12 10:38:31;;;;;;;19.10;2.08;;;;;;;;;;5025993;28;20129;-70
2022/09/12 10:41:02;;;;;;;24.20;2.15;;;;;;;;;;5026486;28;20046;-70
2022/09/12 10:43:33;;;;;;;29.73;3.33;;;;;;;;;;5029806;28;20029;-71
2022/09/12 10:46:19;;;;;;;17.55;1.90;;;;;;;;;;5030184;28;20099;-71
2022/09/12 10:48:49;;;;;;;29.98;2.80;;;;;;;;;;5026008;28;20049;-71
2022/09/12 10:51:25;;;;;;;2.80;1.08;;;;;;;;;;5025824;28;20139;-70
2022/09/12 10:53:53;;;;;;;21.10;2.25;;;;;;;;;;5026457;28;20038;-71
2022/09/12 10:56:25;;;;;;;9.43;1.05;;;;;;;;;;5026024;28;20051;-70
2022/09/12 10:58:54;;;;;;;13.65;1.40;;;;;;;;;;5026742;28;20048;-72
2022/09/12 11:01:24;;;;;;;28.75;3.75;;;;;;;;;;5030644;28;20099;-70
2022/09/12 11:04:00;;;;;;;7.90;2.05;;;;;;;;;;5026268;28;20072;-71
2022/09/12 11:06:35;;;;;;;15.27;1.65;;;;;;;;;;5025512;28;20045;-71
2022/09/12 11:09:01;;;;;;;36.80;3.50;;;;;;;;;;5030569;28;20044;-70
2022/09/12 11:11:38;;;;;;;17.90;2.00;;;;;;;;;;5037783;28;20113;-70
2022/09/12 11:14:07;;;;;;;22.63;2.47;;;;;;;;;;5025897;28;20557;-73
2022/09/12 11:16:53;;;;;;;43.85;3.95;;;;;;;;;;5028778;28;20052;-72
2022/09/12 11:19:22;;;;;;;39.60;4.35;;;;;;;;;;5036212;28;20427;-70
2022/09/12 11:22:00;;;;;;;9.70;1.35;;;;;;;;;;5027534;28;20038;-74
2022/09/12 11:24:45;;;;;;;32.83;3.55;;;;;;;;;;5034763;28;20077;-71
2022/09/12 11:27:12;;;;;;;17.98;2.53;;;;;;;;;;5029943;28;20450;-71
2022/09/12 11:29:45;;;;;;;32.45;3.08;;;;;;;;;;5029291;28;20045;-71
2022/09/12 11:32:12;;;;;;;;;;;;;;;;;;5039042;28;20551;-70
2022/09/12 11:34:41;;;;;;;29.70;2.83;;;;;;;;;;5041800;28;19922;-72
2022/09/12 11:37:13;;;;;;;35.70;3.22;;;;;;;;;;5040681;28;20524;-70
2022/09/12 11:39:45;;;;;;;9.95;0.98;;;;;;;;;;5037093;28;20040;-71
2022/09/12 11:42:15;;;;;;;12.43;1.65;;;;;;;;;;5037281;28;20041;-71
2022/09/12 11:44:46;;;;;;;16.55;2.85;;;;;;;;;;5031552;28;20095;-71
2022/09/12 11:47:13;;;;;;;6.22;1.35;;;;;;;;;;5029681;28;20045;-72
2022/09/12 11:49:46;;;;;;;51.85;4.95;;;;;;;;;;5032344;28;20502;-71
2022/09/12 11:52:13;;;;;;;14.38;1.58;;;;;;;;;;5039188;28;20124;-71
2022/09/12 11:54:40;;;;;;;15.60;1.85;;;;;;;;;;5028925;28;20045;-72
2022/09/12 11:57:12;;;;;;;40.90;3.80;;;;;;;;;;5027549;28;20061;-70
2022/09/12 11:59:48;;;;;;;14.50;1.50;;;;;;;;;;5032551;28;20045;-70
2022/09/12 12:02:24;;;;;;;34.75;3.97;;;;;;;;;;5029043;28;20042;-70
2022/09/12 12:05:10;;;;;;;31.83;3.60;;;;;;;;;;5029910;28;20045;-69
2022/09/12 12:07:41;;;;;;;34.25;4.05;;;;;;;;;;5028079;28;20045;-69
2022/09/12 12:10:26;;;;;;;12.10;1.25;;;;;;;;;;5043044;28;20119;-69
2022/09/12 12:12:54;;;;;;;18.83;2.10;;;;;;;;;;5029196;28;20056;-72
2022/09/12 12:15:21;;;;;;;13.65;1.77;;;;;;;;;;5027522;28;20037;-69
2022/09/12 12:18:01;;;;;;;14.73;1.95;;;;;;;;;;5027611;28;20451;-71
2022/09/12 12:20:28;;;;;;;41.90;3.92;;;;;;;;;;5026350;28;20041;-69
2022/09/12 12:22:54;;;;;;;26.00;2.65;;;;;;;;;;5028094;28;20497;-69
2022/09/12 12:25:23;;;;;;;20.23;2.15;;;;;;;;;;5031237;28;20049;-69
2022/09/12 12:27:57;;;;;;;16.77;2.03;;;;;;;;;;5027250;28;20112;-69
2022/09/12 12:30:30;;;;;;;12.38;1.20;;;;;;;;;;5028153;28;20131;-68
2022/09/12 12:33:06;;;;;;;14.40;2.65;;;;;;;;;;5028305;28;20034;-69
2022/09/12 12:35:36;;;;;;;22.75;2.80;;;;;;;;;;5028176;28;20133;-69
2022/09/12 12:38:04;;;;;;;27.50;2.67;;;;;;;;;;5028376;28;20089;-69
2022/09/12 12:40:31;;;;;;;25.23;2.50;;;;;;;;;;5033090;28;20049;-69
2022/09/12 12:43:00;;;;;;;15.73;1.55;;;;;;;;;;5032463;28;20049;-69
2022/09/12 12:45:26;;;;;;;22.70;2.13;;;;;;;;;;5028159;28;20037;-68
2022/09/12 12:48:13;;;;;;;22.80;2.33;;;;;;;;;;5028501;28;20120;-69
2022/09/12 12:50:40;;;;;;;43.17;4.90;;;;;;;;;;5031088;28;20044;-69
2022/09/12 12:53:23;;;;;;;32.13;2.95;;;;;;;;;;5028347;28;20060;-69
2022/09/12 12:55:50;;;;;;;;;;;;;;;;;;5029925;28;20056;-69
2022/09/12 12:58:25;;;;;;;11.77;1.60;;;;;;;;;;5031496;28;19921;-68
2022/09/12 13:01:11;;;;;;;14.15;2.20;;;;;;;;;;5028156;28;20056;-69
2022/09/12 13:03:40;;;;;;;8.02;1.60;;;;;;;;;;5028232;28;20501;-69
2022/09/12 13:06:18;;;;;;;11.93;1.17;;;;;;;;;;5027702;28;20107;-69
2022/09/12 13:08:54;;;;;;;37.38;5.18;;;;;;;;;;5034134;28;20041;-68
2022/09/12 13:11:46;;;;;;;27.08;2.90;;;;;;;;;;5027724;28;20049;-69
2022/09/12 13:14:32;;;;;;;17.05;1.65;;;;;;;;;;5025930;28;20060;-69
2022/09/12 13:16:59;;;;;;;37.97;4.65;;;;;;;;;;5028004;28;20042;-69
2022/09/12 13:19:28;;;;;;;16.30;1.70;;;;;;;;;;5028401;28;20038;-69
2022/09/12 13:21:55;;;;;;;6.43;0.75;;;;;;;;;;5027304;28;20055;-69
2022/09/12 13:24:22;;;;;;;22.95;2.67;;;;;;;;;;5027256;28;20055;-68
2022/09/12 13:26:49;;;;;;;14.30;1.77;;;;;;;;;;5027440;28;20069;-69
2022/09/12 13:29:19;;;;;;;25.55;2.42;;;;;;;;;;5027769;28;20038;-68
2022/09/12 13:31:48;;;;;;;43.05;5.28;;;;;;;;;;5029572;28;20046;-68
2022/09/12 13:34:19;;;;;;;9.27;1.15;;;;;;;;;;5030604;28;20510;-68
2022/09/12 13:36:46;;;;;;;17.00;1.83;;;;;;;;;;5027125;28;20045;-68
2022/09/12 13:39:22;;;;;;;31.58;4.45;;;;;;;;;;5027462;28;20033;-69
2022/09/12 13:41:59;;;;;;;17.45;2.30;;;;;;;;;;5027176;28;20429;-68
2022/09/12 13:44:26;;;;;;;34.67;3.38;;;;;;;;;;5026642;28;20036;-67
2022/09/12 13:46:54;;;;;;;10.57;2.17;;;;;;;;;;5027715;28;20054;-68
2022/09/12 13:49:30;;;;;;;13.50;2.50;;;;;;;;;;5031303;28;20494;-70
2022/09/12 13:52:00;;;;;;;12.20;1.67;;;;;;;;;;5027178;28;20037;-70
2022/09/12 13:54:27;;;;;;;24.98;3.03;;;;;;;;;;5027068;28;20044;-68
2022/09/12 13:56:53;;;;;;;16.98;1.77;;;;;;;;;;5026887;28;20050;-69
2022/09/12 13:59:20;;;;;;;9.52;2.63;;;;;;;;;;5031359;28;20140;-70
2022/09/12 14:01:47;;;;;;;23.58;3.45;;;;;;;;;;5028590;28;20128;-68
2022/09/12 14:07:10;;;;;;;21.35;2.50;;;;;;;;;;5027517;28;20100;-68
2022/09/12 14:09:38;;;;;;;34.50;3.47;;;;;;;;;;5023102;28;20563;-70
2022/09/12 14:12:17;;;;;;;15.20;3.58;;;;;;;;;;5020313;28;20045;-69
2022/09/12 14:14:46;;;;;;;27.70;3.80;;;;;;;;;;5026080;28;20048;-69
2022/09/12 14:17:17;;;;;;;11.13;1.10;;;;;;;;;;5026149;28;20068;-69
2022/09/12 14:19:49;;;;;;;22.88;2.15;;;;;;;;;;5027900;28;20041;-69
2022/09/12 14:22:18;;;;;;;24.33;3.10;;;;;;;;;;5028784;28;20490;-69
2022/09/12 14:24:50;;;;;;;15.57;2.03;;;;;;;;;;5025793;28;20046;-70
2022/09/12 14:27:22;;;;;;;21.38;2.28;;;;;;;;;;5026239;28;20037;-69
2022/09/12 14:29:52;;;;;;;13.77;2.45;;;;;;;;;;5025404;28;20037;-71
2022/09/12 14:32:21;;;;;;;14.02;1.50;;;;;;;;;;5026038;28;20046;-69
2022/09/12 14:35:04;;;;;;;36.22;4.32;;;;;;;;;;5027622;28;20047;-68
2022/09/12 14:37:31;;;;;;;29.75;3.63;;;;;;;;;;5026573;28;20045;-68
2022/09/12 14:39:58;;;;;;;18.20;2.65;;;;;;;;;;5026396;28;20482;-67
2022/09/12 14:42:27;;;;;;;12.50;2.15;;;;;;;;;;5025724;28;20132;-68
2022/09/12 14:44:59;;;;;;;21.02;2.38;;;;;;;;;;5025114;28;20041;-67
2022/09/12 14:47:26;;;;;;;29.80;2.88;;;;;;;;;;5025230;28;20037;-67
2022/09/12 14:49:53;;;;;;;23.98;2.83;;;;;;;;;;5027304;28;20516;-67
2022/09/12 14:52:19;;;;;;;7.65;1.42;;;;;;;;;;5028662;28;20536;-68
2022/09/12 14:55:22;;;;;;;41.33;3.83;;;;;;;;;;5025544;28;20052;-67